sensor_id;sensor_type;location;lat;lon;timestamp;P1;durP1;ratioP1;P2;durP2;ratioP2
74821;SDS011;63353;48.702;8.884;2023-01-10T00:01:35;1.20;;;1.20;;
74821;SDS011;63353;48.702;8.884;2023-01-10T00:04:01;1.47;;;1.37;;
74821;SDS011;63353;48.702;8.884;2023-01-10T00:06:35;1.83;;;1.70;;
74821;SDS011;63353;48.702;8.884;2023-01-10T00:09:10;1.80;;;1.70;;
74821;SDS011;63353;48.702;8.884;2023-01-10T00:11:35;1.60;;;1.50;;
74821;SDS011;63353;48.702;8.884;2023-01-10T00:14:29;1.80;;;1.70;;
74821;SDS011;63353;48.702;8.884;2023-01-10T00:16:57;2.00;;;1.90;;
74821;SDS011;63353;48.702;8.884;2023-01-10T00:19:29;1.70;;;1.60;;
74821;SDS011;63353;48.702;8.884;2023-01-10T00:21:57;2.57;;;2.20;;
74821;SDS011;63353;48.702;8.884;2023-01-10T00:24:29;3.23;;;2.30;;
74821;SDS011;63353;48.702;8.884;2023-01-10T00:26:58;3.60;;;2.07;;
74821;SDS011;63353;48.702;8.884;2023-01-10T00:29:25;2.33;;;2.13;;
74821;SDS011;63353;48.702;8.884;2023-01-10T00:32:01;2.80;;;2.23;;
74821;SDS011;63353;48.702;8.884;2023-01-10T00:34:26;3.20;;;2.50;;
74821;SDS011;63353;48.702;8.884;2023-01-10T00:36:52;4.10;;;2.83;;
74821;SDS011;63353;48.702;8.884;2023-01-10T00:39:26;2.83;;;2.60;;
74821;SDS011;63353;48.702;8.884;2023-01-10T00:41:52;2.90;;;2.60;;
74821;SDS011;63353;48.702;8.884;2023-01-10T00:44:36;3.27;;;2.30;;
74821;SDS011;63353;48.702;8.884;2023-01-10T00:47:01;3.93;;;2.43;;
74821;SDS011;63353;48.702;8.884;2023-01-10T00:49:27;3.73;;;2.10;;
74821;SDS011;63353;48.702;8.884;2023-01-10T00:51:53;3.17;;;2.30;;
74821;SDS011;63353;48.702;8.884;2023-01-10T00:54:22;2.83;;;2.20;;
74821;SDS011;63353;48.702;8.884;2023-01-10T00:56:53;3.27;;;2.27;;
74821;SDS011;63353;48.702;8.884;2023-01-10T00:59:22;2.30;;;2.10;;
74821;SDS011;63353;48.702;8.884;2023-01-10T01:01:48;2.17;;;1.97;;
74821;SDS011;63353;48.702;8.884;2023-01-10T01:04:21;2.43;;;2.03;;
74821;SDS011;63353;48.702;8.884;2023-01-10T01:06:49;3.07;;;2.00;;
74821;SDS011;63353;48.702;8.884;2023-01-10T01:09:18;2.87;;;2.10;;
74821;SDS011;63353;48.702;8.884;2023-01-10T01:11:55;2.00;;;1.90;;
74821;SDS011;63353;48.702;8.884;2023-01-10T01:14:22;2.00;;;1.80;;
74821;SDS011;63353;48.702;8.884;2023-01-10T01:16:49;2.10;;;1.90;;
74821;SDS011;63353;48.702;8.884;2023-01-10T01:19:15;2.63;;;2.10;;
74821;SDS011;63353;48.702;8.884;2023-01-10T01:21:50;1.77;;;1.67;;
74821;SDS011;63353;48.702;8.884;2023-01-10T01:24:36;1.87;;;1.77;;
74821;SDS011;63353;48.702;8.884;2023-01-10T01:27:03;1.27;;;1.27;;
74821;SDS011;63353;48.702;8.884;2023-01-10T01:29:38;1.60;;;1.50;;
74821;SDS011;63353;48.702;8.884;2023-01-10T01:32:03;1.80;;;1.30;;
74821;SDS011;63353;48.702;8.884;2023-01-10T01:34:38;1.10;;;1.00;;
74821;SDS011;63353;48.702;8.884;2023-01-10T01:37:07;1.00;;;1.00;;
74821;SDS011;63353;48.702;8.884;2023-01-10T01:39:32;1.00;;;1.00;;
74821;SDS011;63353;48.702;8.884;2023-01-10T01:47:57;0.57;;;0.57;;
74821;SDS011;63353;48.702;8.884;2023-01-10T01:50:24;0.73;;;0.73;;
74821;SDS011;63353;48.702;8.884;2023-01-10T01:52:59;1.20;;;0.60;;
74821;SDS011;63353;48.702;8.884;2023-01-10T01:55:32;0.63;;;0.63;;
74821;SDS011;63353;48.702;8.884;2023-01-10T01:58:00;1.50;;;0.60;;
74821;SDS011;63353;48.702;8.884;2023-01-10T02:00:32;0.70;;;0.70;;
74821;SDS011;63353;48.702;8.884;2023-01-10T02:02:59;0.73;;;0.73;;
74821;SDS011;63353;48.702;8.884;2023-01-10T02:05:26;0.80;;;0.80;;
74821;SDS011;63353;48.702;8.884;2023-01-10T02:07:53;1.33;;;0.60;;
74821;SDS011;63353;48.702;8.884;2023-01-10T02:13:51;0.87;;;0.87;;
74821;SDS011;63353;48.702;8.884;2023-01-10T02:16:18;1.10;;;1.00;;
74821;SDS011;63353;48.702;8.884;2023-01-10T02:18:44;1.80;;;1.20;;
74821;SDS011;63353;48.702;8.884;2023-01-10T02:21:23;0.90;;;0.90;;
74821;SDS011;63353;48.702;8.884;2023-01-10T02:27:02;1.40;;;0.97;;
74821;SDS011;63353;48.702;8.884;2023-01-10T02:29:57;0.90;;;0.90;;
74821;SDS011;63353;48.702;8.884;2023-01-10T02:32:48;0.83;;;0.80;;
74821;SDS011;63353;48.702;8.884;2023-01-10T02:41:08;0.70;;;0.70;;
74821;SDS011;63353;48.702;8.884;2023-01-10T02:44:16;0.80;;;0.80;;
74821;SDS011;63353;48.702;8.884;2023-01-10T02:47:03;1.07;;;0.97;;
74821;SDS011;63353;48.702;8.884;2023-01-10T02:52:18;1.20;;;1.07;;
74821;SDS011;63353;48.702;8.884;2023-01-10T02:54:52;1.60;;;1.50;;
74821;SDS011;63353;48.702;8.884;2023-01-10T03:06:10;1.53;;;1.43;;
74821;SDS011;63353;48.702;8.884;2023-01-10T03:11:41;3.50;;;2.30;;
74821;SDS011;63353;48.702;8.884;2023-01-10T03:14:31;5.33;;;2.13;;
74821;SDS011;63353;48.702;8.884;2023-01-10T03:17:01;2.33;;;1.97;;
74821;SDS011;63353;48.702;8.884;2023-01-10T03:19:36;2.40;;;2.20;;
74821;SDS011;63353;48.702;8.884;2023-01-10T03:22:19;3.47;;;2.40;;
74821;SDS011;63353;48.702;8.884;2023-01-10T03:24:54;3.23;;;2.30;;
74821;SDS011;63353;48.702;8.884;2023-01-10T03:27:26;3.13;;;2.00;;
74821;SDS011;63353;48.702;8.884;2023-01-10T03:32:46;2.23;;;2.03;;
74821;SDS011;63353;48.702;8.884;2023-01-10T03:35:22;2.53;;;2.07;;
74821;SDS011;63353;48.702;8.884;2023-01-10T03:38:23;2.00;;;1.80;;
74821;SDS011;63353;48.702;8.884;2023-01-10T03:50:03;1.30;;;1.30;;
74821;SDS011;63353;48.702;8.884;2023-01-10T03:52:45;1.30;;;1.20;;
74821;SDS011;63353;48.702;8.884;2023-01-10T03:55:12;1.33;;;1.20;;
74821;SDS011;63353;48.702;8.884;2023-01-10T03:57:40;1.73;;;1.30;;
74821;SDS011;63353;48.702;8.884;2023-01-10T04:00:08;1.33;;;1.20;;
74821;SDS011;63353;48.702;8.884;2023-01-10T04:02:37;1.30;;;1.20;;
74821;SDS011;63353;48.702;8.884;2023-01-10T04:05:03;1.27;;;0.90;;
74821;SDS011;63353;48.702;8.884;2023-01-10T04:07:29;1.10;;;1.00;;
74821;SDS011;63353;48.702;8.884;2023-01-10T04:10:02;1.10;;;1.00;;
74821;SDS011;63353;48.702;8.884;2023-01-10T04:12:29;2.10;;;1.10;;
74821;SDS011;63353;48.702;8.884;2023-01-10T04:14:54;1.33;;;1.10;;
74821;SDS011;63353;48.702;8.884;2023-01-10T04:17:26;1.13;;;1.10;;
74821;SDS011;63353;48.702;8.884;2023-01-10T04:20:04;1.10;;;1.00;;
74821;SDS011;63353;48.702;8.884;2023-01-10T04:22:30;1.20;;;1.10;;
74821;SDS011;63353;48.702;8.884;2023-01-10T04:24:56;0.97;;;0.97;;
74821;SDS011;63353;48.702;8.884;2023-01-10T04:27:21;2.33;;;1.10;;
74821;SDS011;63353;48.702;8.884;2023-01-10T04:29:51;2.97;;;1.10;;
74821;SDS011;63353;48.702;8.884;2023-01-10T04:32:17;1.27;;;1.20;;
74821;SDS011;63353;48.702;8.884;2023-01-10T04:34:42;1.03;;;1.03;;
74821;SDS011;63353;48.702;8.884;2023-01-10T04:37:18;1.37;;;1.27;;
74821;SDS011;63353;48.702;8.884;2023-01-10T04:39:52;2.47;;;1.10;;
74821;SDS011;63353;48.702;8.884;2023-01-10T04:42:25;1.50;;;1.40;;
74821;SDS011;63353;48.702;8.884;2023-01-10T04:44:50;2.47;;;1.50;;
74821;SDS011;63353;48.702;8.884;2023-01-10T04:47:38;1.90;;;1.67;;
74821;SDS011;63353;48.702;8.884;2023-01-10T04:50:04;3.47;;;1.90;;
74821;SDS011;63353;48.702;8.884;2023-01-10T04:52:33;4.23;;;2.13;;
74821;SDS011;63353;48.702;8.884;2023-01-10T04:55:08;4.30;;;2.00;;
74821;SDS011;63353;48.702;8.884;2023-01-10T04:57:34;5.23;;;2.60;;
74821;SDS011;63353;48.702;8.884;2023-01-10T04:59:59;3.37;;;2.33;;
74821;SDS011;63353;48.702;8.884;2023-01-10T05:02:25;5.57;;;2.70;;
74821;SDS011;63353;48.702;8.884;2023-01-10T05:04:57;5.63;;;2.67;;
74821;SDS011;63353;48.702;8.884;2023-01-10T05:07:22;4.60;;;2.40;;
74821;SDS011;63353;48.702;8.884;2023-01-10T05:10:00;8.27;;;3.27;;
74821;SDS011;63353;48.702;8.884;2023-01-10T05:12:28;8.50;;;2.77;;
74821;SDS011;63353;48.702;8.884;2023-01-10T05:14:54;9.20;;;3.00;;
74821;SDS011;63353;48.702;8.884;2023-01-10T05:17:28;8.87;;;3.37;;
74821;SDS011;63353;48.702;8.884;2023-01-10T05:20:03;9.67;;;3.53;;
74821;SDS011;63353;48.702;8.884;2023-01-10T05:22:37;7.03;;;3.13;;
74821;SDS011;63353;48.702;8.884;2023-01-10T05:25:06;12.40;;;4.40;;
74821;SDS011;63353;48.702;8.884;2023-01-10T05:27:32;7.27;;;2.90;;
74821;SDS011;63353;48.702;8.884;2023-01-10T05:29:57;7.83;;;3.97;;
74821;SDS011;63353;48.702;8.884;2023-01-10T05:32:26;10.80;;;4.80;;
74821;SDS011;63353;48.702;8.884;2023-01-10T05:34:56;10.30;;;4.60;;
74821;SDS011;63353;48.702;8.884;2023-01-10T05:37:21;14.67;;;4.60;;
74821;SDS011;63353;48.702;8.884;2023-01-10T05:40:02;10.10;;;4.60;;
74821;SDS011;63353;48.702;8.884;2023-01-10T05:42:28;9.67;;;3.97;;
74821;SDS011;63353;48.702;8.884;2023-01-10T05:44:54;5.37;;;3.07;;
74821;SDS011;63353;48.702;8.884;2023-01-10T05:47:23;6.43;;;4.10;;
74821;SDS011;63353;48.702;8.884;2023-01-10T05:49:57;6.37;;;3.43;;
74821;SDS011;63353;48.702;8.884;2023-01-10T05:52:28;9.67;;;3.33;;
74821;SDS011;63353;48.702;8.884;2023-01-10T05:54:57;6.20;;;3.10;;
74821;SDS011;63353;48.702;8.884;2023-01-10T05:57:26;7.87;;;3.83;;
74821;SDS011;63353;48.702;8.884;2023-01-10T05:59:52;16.33;;;10.37;;
74821;SDS011;63353;48.702;8.884;2023-01-10T06:02:20;9.60;;;4.00;;
74821;SDS011;63353;48.702;8.884;2023-01-10T06:04:53;6.40;;;3.13;;
74821;SDS011;63353;48.702;8.884;2023-01-10T06:07:20;7.50;;;2.60;;
74821;SDS011;63353;48.702;8.884;2023-01-10T06:09:46;5.17;;;2.60;;
74821;SDS011;63353;48.702;8.884;2023-01-10T06:12:12;5.13;;;2.47;;
74821;SDS011;63353;48.702;8.884;2023-01-10T06:14:46;9.40;;;2.80;;
74821;SDS011;63353;48.702;8.884;2023-01-10T06:17:14;5.27;;;2.70;;
74821;SDS011;63353;48.702;8.884;2023-01-10T06:19:40;8.43;;;2.73;;
74821;SDS011;63353;48.702;8.884;2023-01-10T06:22:09;7.77;;;3.30;;
74821;SDS011;63353;48.702;8.884;2023-01-10T06:24:34;5.90;;;3.10;;
74821;SDS011;63353;48.702;8.884;2023-01-10T06:27:03;11.73;;;5.40;;
74821;SDS011;63353;48.702;8.884;2023-01-10T06:29:29;6.70;;;4.67;;
74821;SDS011;63353;48.702;8.884;2023-01-10T06:31:54;9.17;;;4.97;;
74821;SDS011;63353;48.702;8.884;2023-01-10T06:34:20;6.77;;;4.63;;
74821;SDS011;63353;48.702;8.884;2023-01-10T06:36:46;6.97;;;2.87;;
74821;SDS011;63353;48.702;8.884;2023-01-10T06:39:11;9.87;;;4.20;;
74821;SDS011;63353;48.702;8.884;2023-01-10T06:41:46;5.50;;;3.93;;
74821;SDS011;63353;48.702;8.884;2023-01-10T06:44:12;6.33;;;2.63;;
74821;SDS011;63353;48.702;8.884;2023-01-10T06:46:46;6.53;;;2.57;;
74821;SDS011;63353;48.702;8.884;2023-01-10T06:49:12;7.97;;;2.90;;
74821;SDS011;63353;48.702;8.884;2023-01-10T06:51:37;11.13;;;3.60;;
74821;SDS011;63353;48.702;8.884;2023-01-10T06:54:03;6.87;;;3.27;;
74821;SDS011;63353;48.702;8.884;2023-01-10T06:56:32;5.93;;;2.40;;
74821;SDS011;63353;48.702;8.884;2023-01-10T06:59:00;6.97;;;2.87;;
74821;SDS011;63353;48.702;8.884;2023-01-10T07:01:26;5.90;;;2.50;;
74821;SDS011;63353;48.702;8.884;2023-01-10T07:04:01;6.67;;;2.50;;
74821;SDS011;63353;48.702;8.884;2023-01-10T07:06:27;4.37;;;2.30;;
74821;SDS011;63353;48.702;8.884;2023-01-10T07:08:53;8.87;;;2.43;;
74821;SDS011;63353;48.702;8.884;2023-01-10T07:11:19;4.73;;;2.40;;
74821;SDS011;63353;48.702;8.884;2023-01-10T07:13:51;5.70;;;2.87;;
74821;SDS011;63353;48.702;8.884;2023-01-10T07:16:21;8.43;;;2.70;;
74821;SDS011;63353;48.702;8.884;2023-01-10T07:18:46;8.13;;;2.63;;
74821;SDS011;63353;48.702;8.884;2023-01-10T07:21:12;8.57;;;3.20;;
74821;SDS011;63353;48.702;8.884;2023-01-10T07:23:50;5.97;;;2.60;;
74821;SDS011;63353;48.702;8.884;2023-01-10T07:26:22;16.83;;;7.47;;
74821;SDS011;63353;48.702;8.884;2023-01-10T07:28:48;6.30;;;2.87;;
74821;SDS011;63353;48.702;8.884;2023-01-10T07:31:27;4.60;;;2.20;;
74821;SDS011;63353;48.702;8.884;2023-01-10T07:33:56;7.00;;;2.17;;
74821;SDS011;63353;48.702;8.884;2023-01-10T07:36:21;6.70;;;2.20;;
74821;SDS011;63353;48.702;8.884;2023-01-10T07:38:47;6.23;;;2.40;;
74821;SDS011;63353;48.702;8.884;2023-01-10T07:41:13;5.80;;;2.20;;
74821;SDS011;63353;48.702;8.884;2023-01-10T07:43:44;5.37;;;2.17;;
74821;SDS011;63353;48.702;8.884;2023-01-10T07:46:10;6.73;;;2.20;;
74821;SDS011;63353;48.702;8.884;2023-01-10T07:48:37;4.77;;;2.60;;
74821;SDS011;63353;48.702;8.884;2023-01-10T07:51:03;3.70;;;2.10;;
74821;SDS011;63353;48.702;8.884;2023-01-10T07:53:32;4.27;;;2.57;;
74821;SDS011;63353;48.702;8.884;2023-01-10T07:55:59;10.70;;;3.83;;
74821;SDS011;63353;48.702;8.884;2023-01-10T07:58:28;5.93;;;2.50;;
74821;SDS011;63353;48.702;8.884;2023-01-10T08:00:58;5.23;;;2.20;;
74821;SDS011;63353;48.702;8.884;2023-01-10T08:03:25;4.97;;;2.50;;
74821;SDS011;63353;48.702;8.884;2023-01-10T08:06:01;5.83;;;2.93;;
74821;SDS011;63353;48.702;8.884;2023-01-10T08:08:34;4.60;;;2.40;;
74821;SDS011;63353;48.702;8.884;2023-01-10T08:11:00;6.30;;;2.93;;
74821;SDS011;63353;48.702;8.884;2023-01-10T08:13:29;7.50;;;2.77;;
74821;SDS011;63353;48.702;8.884;2023-01-10T08:15:58;5.73;;;3.27;;
74821;SDS011;63353;48.702;8.884;2023-01-10T08:18:27;5.70;;;3.80;;
74821;SDS011;63353;48.702;8.884;2023-01-10T08:20:59;9.40;;;4.63;;
74821;SDS011;63353;48.702;8.884;2023-01-10T08:23:25;10.30;;;7.50;;
74821;SDS011;63353;48.702;8.884;2023-01-10T08:25:51;4.00;;;3.43;;
74821;SDS011;63353;48.702;8.884;2023-01-10T08:28:18;22.80;;;16.33;;
74821;SDS011;63353;48.702;8.884;2023-01-10T08:30:43;17.77;;;13.23;;
74821;SDS011;63353;48.702;8.884;2023-01-10T08:33:09;19.03;;;11.07;;
74821;SDS011;63353;48.702;8.884;2023-01-10T08:35:36;8.80;;;4.40;;
74821;SDS011;63353;48.702;8.884;2023-01-10T08:38:09;10.97;;;5.50;;
74821;SDS011;63353;48.702;8.884;2023-01-10T08:40:38;7.97;;;3.30;;
74821;SDS011;63353;48.702;8.884;2023-01-10T08:43:05;5.87;;;3.23;;
74821;SDS011;63353;48.702;8.884;2023-01-10T08:45:33;11.30;;;4.30;;
74821;SDS011;63353;48.702;8.884;2023-01-10T08:48:09;5.97;;;3.20;;
74821;SDS011;63353;48.702;8.884;2023-01-10T08:50:41;10.63;;;4.97;;
74821;SDS011;63353;48.702;8.884;2023-01-10T08:53:06;9.00;;;4.63;;
74821;SDS011;63353;48.702;8.884;2023-01-10T08:55:36;5.80;;;4.60;;
74821;SDS011;63353;48.702;8.884;2023-01-10T08:58:08;6.77;;;3.40;;
74821;SDS011;63353;48.702;8.884;2023-01-10T09:00:34;6.07;;;2.63;;
74821;SDS011;63353;48.702;8.884;2023-01-10T09:03:06;5.53;;;2.93;;
74821;SDS011;63353;48.702;8.884;2023-01-10T09:05:35;6.30;;;3.00;;
74821;SDS011;63353;48.702;8.884;2023-01-10T09:08:10;7.97;;;2.93;;
74821;SDS011;63353;48.702;8.884;2023-01-10T09:10:35;6.70;;;2.73;;
74821;SDS011;63353;48.702;8.884;2023-01-10T09:13:04;5.73;;;2.80;;
74821;SDS011;63353;48.702;8.884;2023-01-10T09:15:39;5.93;;;2.73;;
74821;SDS011;63353;48.702;8.884;2023-01-10T09:18:10;5.43;;;2.70;;
74821;SDS011;63353;48.702;8.884;2023-01-10T09:20:43;4.47;;;2.83;;
74821;SDS011;63353;48.702;8.884;2023-01-10T09:23:16;6.17;;;3.10;;
74821;SDS011;63353;48.702;8.884;2023-01-10T09:25:44;7.23;;;3.70;;
74821;SDS011;63353;48.702;8.884;2023-01-10T09:28:14;6.93;;;3.37;;
74821;SDS011;63353;48.702;8.884;2023-01-10T09:30:40;6.87;;;3.13;;
74821;SDS011;63353;48.702;8.884;2023-01-10T09:33:06;7.97;;;3.30;;
74821;SDS011;63353;48.702;8.884;2023-01-10T09:35:36;7.20;;;3.40;;
74821;SDS011;63353;48.702;8.884;2023-01-10T09:38:04;7.57;;;3.40;;
74821;SDS011;63353;48.702;8.884;2023-01-10T09:43:39;7.53;;;3.40;;
74821;SDS011;63353;48.702;8.884;2023-01-10T09:52:36;8.63;;;4.10;;
74821;SDS011;63353;48.702;8.884;2023-01-10T09:55:27;6.70;;;4.43;;
74821;SDS011;63353;48.702;8.884;2023-01-10T09:57:57;12.07;;;5.53;;
74821;SDS011;63353;48.702;8.884;2023-01-10T10:00:34;8.23;;;3.93;;
74821;SDS011;63353;48.702;8.884;2023-01-10T10:03:04;6.90;;;4.10;;
74821;SDS011;63353;48.702;8.884;2023-01-10T10:05:48;6.40;;;4.60;;
74821;SDS011;63353;48.702;8.884;2023-01-10T10:08:19;5.17;;;2.60;;
74821;SDS011;63353;48.702;8.884;2023-01-10T10:19:22;3.80;;;1.97;;
74821;SDS011;63353;48.702;8.884;2023-01-10T10:34:11;4.50;;;2.00;;
74821;SDS011;63353;48.702;8.884;2023-01-10T10:36:49;2.17;;;1.70;;
74821;SDS011;63353;48.702;8.884;2023-01-10T10:39:22;3.30;;;1.80;;
74821;SDS011;63353;48.702;8.884;2023-01-10T10:41:57;4.60;;;1.70;;
74821;SDS011;63353;48.702;8.884;2023-01-10T10:44:38;5.23;;;2.33;;
74821;SDS011;63353;48.702;8.884;2023-01-10T10:47:27;2.63;;;1.60;;
74821;SDS011;63353;48.702;8.884;2023-01-10T10:52:50;4.10;;;1.60;;
74821;SDS011;63353;48.702;8.884;2023-01-10T10:55:17;4.87;;;1.53;;
74821;SDS011;63353;48.702;8.884;2023-01-10T10:57:59;4.30;;;2.00;;
74821;SDS011;63353;48.702;8.884;2023-01-10T11:00:26;4.33;;;1.87;;
74821;SDS011;63353;48.702;8.884;2023-01-10T11:03:18;6.67;;;2.07;;
74821;SDS011;63353;48.702;8.884;2023-01-10T11:05:43;4.40;;;2.00;;
74821;SDS011;63353;48.702;8.884;2023-01-10T11:08:12;4.83;;;1.93;;
74821;SDS011;63353;48.702;8.884;2023-01-10T11:10:48;4.77;;;1.70;;
74821;SDS011;63353;48.702;8.884;2023-01-10T11:21:51;5.03;;;1.70;;
74821;SDS011;63353;48.702;8.884;2023-01-10T11:24:33;3.23;;;2.30;;
74821;SDS011;63353;48.702;8.884;2023-01-10T11:27:19;3.37;;;2.37;;
74821;SDS011;63353;48.702;8.884;2023-01-10T11:29:48;4.57;;;2.40;;
74821;SDS011;63353;48.702;8.884;2023-01-10T11:43:41;4.17;;;1.93;;
74821;SDS011;63353;48.702;8.884;2023-01-10T11:46:25;4.00;;;2.20;;
74821;SDS011;63353;48.702;8.884;2023-01-10T11:48:52;5.27;;;1.53;;
74821;SDS011;63353;48.702;8.884;2023-01-10T11:51:51;3.50;;;1.73;;
74821;SDS011;63353;48.702;8.884;2023-01-10T11:54:24;5.53;;;2.00;;
74821;SDS011;63353;48.702;8.884;2023-01-10T11:56:59;5.13;;;1.87;;
74821;SDS011;63353;48.702;8.884;2023-01-10T11:59:33;10.00;;;3.20;;
74821;SDS011;63353;48.702;8.884;2023-01-10T12:02:03;11.23;;;4.63;;
74821;SDS011;63353;48.702;8.884;2023-01-10T12:04:41;6.10;;;2.53;;
74821;SDS011;63353;48.702;8.884;2023-01-10T12:07:11;5.27;;;1.80;;
74821;SDS011;63353;48.702;8.884;2023-01-10T12:09:46;12.27;;;4.20;;
74821;SDS011;63353;48.702;8.884;2023-01-10T12:12:26;16.67;;;9.70;;
74821;SDS011;63353;48.702;8.884;2023-01-10T12:18:00;3.37;;;1.60;;
74821;SDS011;63353;48.702;8.884;2023-01-10T12:20:33;4.43;;;1.63;;
74821;SDS011;63353;48.702;8.884;2023-01-10T12:23:11;6.60;;;2.60;;
74821;SDS011;63353;48.702;8.884;2023-01-10T12:25:42;5.13;;;1.60;;
74821;SDS011;63353;48.702;8.884;2023-01-10T12:28:15;2.67;;;1.70;;
74821;SDS011;63353;48.702;8.884;2023-01-10T12:30:42;6.80;;;3.40;;
74821;SDS011;63353;48.702;8.884;2023-01-10T12:33:31;9.87;;;3.80;;
74821;SDS011;63353;48.702;8.884;2023-01-10T12:38:39;3.63;;;1.63;;
74821;SDS011;63353;48.702;8.884;2023-01-10T12:44:41;3.50;;;1.40;;
74821;SDS011;63353;48.702;8.884;2023-01-10T12:52:33;6.07;;;1.70;;
74821;SDS011;63353;48.702;8.884;2023-01-10T12:55:18;3.03;;;1.60;;
74821;SDS011;63353;48.702;8.884;2023-01-10T12:57:46;2.60;;;1.33;;
74821;SDS011;63353;48.702;8.884;2023-01-10T13:00:15;2.77;;;1.50;;
74821;SDS011;63353;48.702;8.884;2023-01-10T13:02:49;3.33;;;1.30;;
74821;SDS011;63353;48.702;8.884;2023-01-10T13:05:21;4.20;;;1.30;;
74821;SDS011;63353;48.702;8.884;2023-01-10T13:07:49;5.10;;;2.93;;
74821;SDS011;63353;48.702;8.884;2023-01-10T13:10:22;5.03;;;2.03;;
74821;SDS011;63353;48.702;8.884;2023-01-10T13:16:39;3.33;;;1.53;;
74821;SDS011;63353;48.702;8.884;2023-01-10T13:21:32;3.60;;;1.50;;
74821;SDS011;63353;48.702;8.884;2023-01-10T13:24:03;4.87;;;1.40;;
74821;SDS011;63353;48.702;8.884;2023-01-10T13:29:25;3.23;;;1.60;;
74821;SDS011;63353;48.702;8.884;2023-01-10T13:32:22;3.00;;;1.63;;
74821;SDS011;63353;48.702;8.884;2023-01-10T13:34:52;3.33;;;1.70;;
74821;SDS011;63353;48.702;8.884;2023-01-10T13:37:26;4.27;;;1.63;;
74821;SDS011;63353;48.702;8.884;2023-01-10T13:40:16;6.00;;;1.67;;
74821;SDS011;63353;48.702;8.884;2023-01-10T13:45:54;3.43;;;1.60;;
74821;SDS011;63353;48.702;8.884;2023-01-10T13:59:04;23.83;;;10.37;;
74821;SDS011;63353;48.702;8.884;2023-01-10T14:01:55;11.40;;;6.50;;
74821;SDS011;63353;48.702;8.884;2023-01-10T14:07:44;7.10;;;3.27;;
74821;SDS011;63353;48.702;8.884;2023-01-10T14:10:20;12.83;;;5.17;;
74821;SDS011;63353;48.702;8.884;2023-01-10T14:12:52;8.73;;;5.20;;
74821;SDS011;63353;48.702;8.884;2023-01-10T14:15:48;4.73;;;4.30;;
74821;SDS011;63353;48.702;8.884;2023-01-10T14:18:28;3.87;;;2.07;;
74821;SDS011;63353;48.702;8.884;2023-01-10T14:21:06;2.50;;;1.60;;
74821;SDS011;63353;48.702;8.884;2023-01-10T14:26:51;13.73;;;6.03;;
74821;SDS011;63353;48.702;8.884;2023-01-10T14:29:19;2.20;;;1.60;;
74821;SDS011;63353;48.702;8.884;2023-01-10T14:31:45;6.70;;;3.37;;
74821;SDS011;63353;48.702;8.884;2023-01-10T14:34:17;5.77;;;2.10;;
74821;SDS011;63353;48.702;8.884;2023-01-10T14:37:07;7.57;;;2.10;;
74821;SDS011;63353;48.702;8.884;2023-01-10T14:39:44;9.33;;;3.53;;
74821;SDS011;63353;48.702;8.884;2023-01-10T14:42:20;2.23;;;2.00;;
74821;SDS011;63353;48.702;8.884;2023-01-10T14:44:48;2.50;;;1.50;;
74821;SDS011;63353;48.702;8.884;2023-01-10T14:50:03;5.60;;;3.50;;
74821;SDS011;63353;48.702;8.884;2023-01-10T14:52:33;3.73;;;2.00;;
74821;SDS011;63353;48.702;8.884;2023-01-10T14:55:09;4.50;;;1.57;;
74821;SDS011;63353;48.702;8.884;2023-01-10T15:00:29;2.17;;;1.53;;
74821;SDS011;63353;48.702;8.884;2023-01-10T15:02:57;6.80;;;1.70;;
74821;SDS011;63353;48.702;8.884;2023-01-10T15:05:28;3.33;;;1.57;;
74821;SDS011;63353;48.702;8.884;2023-01-10T15:08:14;2.80;;;1.70;;
74821;SDS011;63353;48.702;8.884;2023-01-10T15:10:48;6.33;;;2.17;;
74821;SDS011;63353;48.702;8.884;2023-01-10T15:13:26;4.10;;;2.17;;
74821;SDS011;63353;48.702;8.884;2023-01-10T15:15:53;4.43;;;1.80;;
74821;SDS011;63353;48.702;8.884;2023-01-10T15:21:00;4.97;;;2.20;;
74821;SDS011;63353;48.702;8.884;2023-01-10T15:23:33;3.67;;;2.20;;
74821;SDS011;63353;48.702;8.884;2023-01-10T15:26:10;5.57;;;2.00;;
74821;SDS011;63353;48.702;8.884;2023-01-10T15:29:10;4.47;;;2.27;;
74821;SDS011;63353;48.702;8.884;2023-01-10T15:31:41;5.23;;;2.10;;
74821;SDS011;63353;48.702;8.884;2023-01-10T15:34:21;9.73;;;3.53;;
74821;SDS011;63353;48.702;8.884;2023-01-10T15:36:51;12.37;;;5.70;;
74821;SDS011;63353;48.702;8.884;2023-01-10T15:39:29;9.57;;;4.03;;
74821;SDS011;63353;48.702;8.884;2023-01-10T15:42:07;7.10;;;4.33;;
74821;SDS011;63353;48.702;8.884;2023-01-10T15:44:41;6.50;;;3.30;;
74821;SDS011;63353;48.702;8.884;2023-01-10T15:50:27;5.80;;;2.37;;
74821;SDS011;63353;48.702;8.884;2023-01-10T15:53:05;4.87;;;2.43;;
74821;SDS011;63353;48.702;8.884;2023-01-10T15:58:13;7.73;;;3.70;;
74821;SDS011;63353;48.702;8.884;2023-01-10T16:00:53;3.27;;;1.83;;
74821;SDS011;63353;48.702;8.884;2023-01-10T16:03:35;3.83;;;2.10;;
74821;SDS011;63353;48.702;8.884;2023-01-10T16:06:03;6.77;;;2.00;;
74821;SDS011;63353;48.702;8.884;2023-01-10T16:08:34;7.20;;;1.93;;
74821;SDS011;63353;48.702;8.884;2023-01-10T16:11:15;3.67;;;1.73;;
74821;SDS011;63353;48.702;8.884;2023-01-10T16:14:02;5.30;;;2.20;;
74821;SDS011;63353;48.702;8.884;2023-01-10T16:16:31;4.23;;;2.33;;
74821;SDS011;63353;48.702;8.884;2023-01-10T16:18:57;5.57;;;2.80;;
74821;SDS011;63353;48.702;8.884;2023-01-10T16:21:23;7.17;;;2.60;;
74821;SDS011;63353;48.702;8.884;2023-01-10T16:23:53;6.17;;;2.30;;
74821;SDS011;63353;48.702;8.884;2023-01-10T16:26:21;4.93;;;2.90;;
74821;SDS011;63353;48.702;8.884;2023-01-10T16:28:53;8.33;;;3.00;;
74821;SDS011;63353;48.702;8.884;2023-01-10T16:31:21;4.23;;;2.43;;
74821;SDS011;63353;48.702;8.884;2023-01-10T16:33:47;5.57;;;2.33;;
74821;SDS011;63353;48.702;8.884;2023-01-10T16:36:14;6.17;;;3.40;;
74821;SDS011;63353;48.702;8.884;2023-01-10T16:38:41;5.93;;;2.97;;
74821;SDS011;63353;48.702;8.884;2023-01-10T16:41:10;7.17;;;2.90;;
74821;SDS011;63353;48.702;8.884;2023-01-10T16:44:02;7.43;;;2.40;;
74821;SDS011;63353;48.702;8.884;2023-01-10T16:46:33;6.30;;;3.10;;
74821;SDS011;63353;48.702;8.884;2023-01-10T16:48:59;9.30;;;4.40;;
74821;SDS011;63353;48.702;8.884;2023-01-10T16:51:25;8.63;;;4.83;;
74821;SDS011;63353;48.702;8.884;2023-01-10T16:53:52;19.03;;;10.27;;
74821;SDS011;63353;48.702;8.884;2023-01-10T16:56:20;16.37;;;9.07;;
74821;SDS011;63353;48.702;8.884;2023-01-10T16:58:48;8.87;;;4.60;;
74821;SDS011;63353;48.702;8.884;2023-01-10T17:01:21;12.40;;;7.23;;
74821;SDS011;63353;48.702;8.884;2023-01-10T17:03:50;18.60;;;9.07;;
74821;SDS011;63353;48.702;8.884;2023-01-10T17:06:17;10.50;;;6.53;;
74821;SDS011;63353;48.702;8.884;2023-01-10T17:08:43;10.23;;;4.57;;
74821;SDS011;63353;48.702;8.884;2023-01-10T17:11:14;11.13;;;6.40;;
74821;SDS011;63353;48.702;8.884;2023-01-10T17:13:43;7.17;;;3.50;;
74821;SDS011;63353;48.702;8.884;2023-01-10T17:16:09;5.67;;;3.00;;
74821;SDS011;63353;48.702;8.884;2023-01-10T17:18:36;8.33;;;3.73;;
74821;SDS011;63353;48.702;8.884;2023-01-10T17:21:02;8.70;;;4.23;;
74821;SDS011;63353;48.702;8.884;2023-01-10T17:23:28;10.70;;;3.77;;
74821;SDS011;63353;48.702;8.884;2023-01-10T17:25:58;7.13;;;4.27;;
74821;SDS011;63353;48.702;8.884;2023-01-10T17:28:25;8.80;;;4.40;;
74821;SDS011;63353;48.702;8.884;2023-01-10T17:30:51;7.83;;;3.80;;
74821;SDS011;63353;48.702;8.884;2023-01-10T17:33:16;9.90;;;3.70;;
74821;SDS011;63353;48.702;8.884;2023-01-10T17:35:43;6.83;;;4.77;;
74821;SDS011;63353;48.702;8.884;2023-01-10T17:38:09;7.67;;;4.60;;
74821;SDS011;63353;48.702;8.884;2023-01-10T17:40:40;10.10;;;4.70;;
74821;SDS011;63353;48.702;8.884;2023-01-10T17:43:06;6.93;;;3.60;;
74821;SDS011;63353;48.702;8.884;2023-01-10T17:45:33;8.10;;;4.90;;
74821;SDS011;63353;48.702;8.884;2023-01-10T17:48:02;8.30;;;4.07;;